Time;durP1;ratioP1;P1;durP2;ratioP2;P2;SDS_P1;SDS_P2;PMS_P1;PMS_P2;Temp;Humidity;BMP_temperature;BMP_pressure;BME280_temperature;BME280_humidity;BME280_pressure;Samples;Min_cycle;Max_cycle;Signal;HPM_P1;HPM_P2
2021/08/19 00:01:35;;;;;;;9.85;5.93;;;;;;;16.61;79.72;101442.31;4965622;28;20134;-46
2021/08/19 00:04:00;;;;;;;8.20;6.10;;;;;;;16.66;78.90;101434.41;4959696;28;20055;-49
2021/08/19 00:06:25;;;;;;;9.80;6.07;;;;;;;16.69;79.04;101440.56;4968342;28;20037;-51
2021/08/19 00:08:51;;;;;;;11.68;6.50;;;;;;;16.75;78.40;101443.19;4961815;28;20037;-49
2021/08/19 00:11:17;;;;;;;11.07;6.13;;;;;;;16.77;78.16;101433.50;4962637;28;20446;-50
2021/08/19 00:13:42;;;;;;;11.35;5.93;;;;;;;16.78;78.72;101431.75;4966879;28;20023;-48
2021/08/19 00:16:08;;;;;;;13.57;6.28;;;;;;;16.79;78.03;101434.38;4964684;28;20145;-46
2021/08/19 00:18:35;;;;;;;12.15;6.50;;;;;;;16.81;79.27;101437.00;4963521;28;21238;-48
2021/08/19 00:21:00;;;;;;;10.98;6.70;;;;;;;16.82;78.64;101434.38;4975273;28;20429;-49
2021/08/19 00:23:26;;;;;;;12.60;6.20;;;;;;;16.82;78.68;101437.03;4970445;28;20113;-50
2021/08/19 00:25:51;;;;;;;12.32;6.32;;;;;;;16.82;78.60;101431.75;4963879;28;20104;-50
2021/08/19 00:28:16;;;;;;;9.43;6.18;;;;;;;16.83;78.94;101440.53;4961817;28;20038;-51
2021/08/19 00:30:42;;;;;;;10.77;6.32;;;;;;;16.84;80.01;101439.63;4967296;28;20486;-48
2021/08/19 00:33:07;;;;;;;10.30;6.65;;;;;;;16.83;79.04;101438.75;4962909;28;20080;-47
2021/08/19 00:35:33;;;;;;;11.18;6.85;;;;;;;16.83;79.48;101430.84;4965746;28;20058;-48
2021/08/19 00:37:58;;;;;;;10.70;6.10;;;;;;;16.85;80.02;101438.75;4960416;28;20181;-46
2021/08/19 00:40:24;;;;;;;11.30;6.38;;;;;;;16.85;80.20;101425.56;4970987;28;20058;-49
2021/08/19 00:42:50;;;;;;;15.00;6.60;;;;;;;16.85;79.41;101429.09;4965464;28;20040;-48
2021/08/19 00:45:16;;;;;;;11.60;6.40;;;;;;;16.84;79.08;101434.34;4979455;28;20034;-48
2021/08/19 00:47:41;;;;;;;9.60;6.10;;;;;;;16.85;79.52;101425.56;4963297;28;20537;-50
2021/08/19 00:50:09;;;;;;;15.23;6.28;;;;;;;16.85;79.66;101429.09;4962571;28;20080;-48
2021/08/19 00:52:36;;;;;;;10.93;6.07;;;;;;;16.83;79.68;101422.94;4959261;28;20030;-49
2021/08/19 00:55:03;;;;;;;13.02;6.35;;;;;;;16.84;79.72;101422.06;4964097;28;20678;-48
2021/08/19 00:57:28;;;;;;;11.70;6.85;;;;;;;16.90;79.40;101421.16;4966786;28;20030;-52
2021/08/19 00:59:54;;;;;;;12.73;6.50;;;;;;;16.91;79.50;101415.03;4961214;28;20057;-47
2021/08/19 01:02:22;;;;;;;13.07;6.82;;;;;;;16.92;79.44;101422.03;4962914;28;20030;-47
2021/08/19 01:04:48;;;;;;;12.25;7.20;;;;;;;16.89;79.87;101411.53;4963545;28;20547;-52
2021/08/19 01:07:14;;;;;;;11.85;6.97;;;;;;;16.86;80.51;101412.41;4961435;28;20025;-47
2021/08/19 01:09:41;;;;;;;12.20;6.20;;;;;;;16.76;80.15;101409.81;4967114;28;20122;-48
2021/08/19 01:12:09;;;;;;;11.02;6.25;;;;;;;16.67;80.42;101409.84;4964030;28;20120;-49
2021/08/19 01:14:34;;;;;;;12.05;6.18;;;;;;;16.53;80.76;101402.81;4970044;28;20182;-49
2021/08/19 01:17:17;;;;;;;11.40;7.00;;;;;;;16.39;81.07;101412.53;4964891;28;20037;-53
2021/08/19 01:19:45;;;;;;;12.13;6.53;;;;;;;16.24;81.54;101405.50;4977942;28;20041;-48
2021/08/19 01:22:10;;;;;;;9.68;6.53;;;;;;;16.14;82.02;101416.94;4963962;28;20410;-47
2021/08/19 01:24:36;;;;;;;10.90;6.45;;;;;;;16.01;82.24;101420.44;4964896;28;20045;-49
2021/08/19 01:27:02;;;;;;;13.40;7.25;;;;;;;15.91;82.67;101420.47;4966829;28;20542;-49
2021/08/19 01:29:27;;;;;;;11.25;7.07;;;;;;;15.85;82.82;101415.19;4963835;28;20046;-50
2021/08/19 01:32:01;;;;;;;12.13;7.57;;;;;;;15.70;83.27;101416.94;4968897;28;20161;-47
2021/08/19 01:34:27;;;;;;;12.45;7.30;;;;;;;15.71;83.34;101415.19;4961198;28;20022;-47
2021/08/19 01:36:52;;;;;;;15.18;8.18;;;;;;;15.62;83.63;101418.66;4968932;28;20049;-48
2021/08/19 01:39:18;;;;;;;13.00;8.02;;;;;;;15.57;83.69;101412.53;4963910;28;20033;-50
2021/08/19 01:41:43;;;;;;;13.90;8.32;;;;;;;15.48;84.20;101417.75;4963764;28;20040;-46
2021/08/19 01:44:08;;;;;;;14.27;8.13;;;;;;;15.40;84.75;101414.22;4960360;28;20033;-46
2021/08/19 01:46:34;;;;;;;13.18;7.55;;;;;;;15.50;84.19;101415.09;4968008;28;20137;-46
2021/08/19 01:49:02;;;;;;;13.27;7.85;;;;;;;15.51;84.42;101414.22;4964641;28;20041;-47
2021/08/19 01:51:27;;;;;;;18.10;8.98;;;;;;;15.55;85.06;101418.66;4961213;28;20073;-47
2021/08/19 01:53:52;;;;;;;19.08;9.07;;;;;;;15.59;85.10;101418.66;4969607;28;20864;-48
2021/08/19 01:56:19;;;;;;;14.85;8.60;;;;;;;15.70;85.18;101419.56;4961381;28;20080;-52
2021/08/19 01:58:45;;;;;;;13.75;8.45;;;;;;;15.73;85.18;101423.94;4967341;28;20522;-51
2021/08/19 02:01:16;;;;;;;14.85;8.90;;;;;;;15.88;85.10;101417.81;4963796;28;20069;-46
2021/08/19 02:03:41;;;;;;;13.75;7.97;;;;;;;16.00;84.51;101421.31;4969175;28;20038;-51
2021/08/19 02:06:07;;;;;;;13.95;8.15;;;;;;;16.04;84.14;101425.69;4967116;28;20117;-49
2021/08/19 02:08:32;;;;;;;12.70;7.65;;;;;;;16.09;83.84;101418.69;4966890;28;20125;-50
2021/08/19 02:10:57;;;;;;;13.65;7.57;;;;;;;16.15;83.59;101415.19;4965805;28;20414;-48
2021/08/19 02:13:23;;;;;;;12.43;6.78;;;;;;;16.24;83.28;101421.31;4963365;28;20532;-49
2021/08/19 02:15:48;;;;;;;11.43;6.40;;;;;;;16.51;82.16;101411.63;4971932;28;20027;-47
2021/08/19 02:18:13;;;;;;;10.00;5.97;;;;;;;16.59;81.77;101412.44;4965318;28;20030;-51
2021/08/19 02:20:39;;;;;;;12.55;6.60;;;;;;;16.68;80.96;101414.22;4965700;28;20070;-50
2021/08/19 02:23:04;;;;;;;11.00;6.38;;;;;;;16.72;80.86;101411.56;4973563;28;20030;-49
2021/08/19 02:25:30;;;;;;;9.38;6.28;;;;;;;16.76;80.49;101407.19;4966111;28;20026;-51
2021/08/19 02:27:56;;;;;;;10.57;6.65;;;;;;;16.80;80.62;101407.16;4971428;28;20045;-47
2021/08/19 02:30:21;;;;;;;11.93;6.00;;;;;;;16.84;80.06;101413.28;4966066;28;20101;-50
2021/08/19 02:32:53;;;;;;;8.32;5.43;;;;;;;16.86;80.19;101407.16;4986847;28;20121;-51
2021/08/19 02:35:19;;;;;;;11.55;6.45;;;;;;;16.68;80.48;101406.34;4966553;28;20811;-48
2021/08/19 02:37:45;;;;;;;10.27;5.95;;;;;;;16.75;80.40;101403.69;4968662;28;20572;-49
2021/08/19 02:40:11;;;;;;;11.20;5.82;;;;;;;16.69;80.70;101400.19;4969910;28;20121;-49
2021/08/19 02:42:36;;;;;;;10.10;6.40;;;;;;;16.60;80.96;101399.31;4961735;28;20477;-47
2021/08/19 02:45:02;;;;;;;12.77;6.45;;;;;;;16.53;81.32;101400.19;4966557;28;20074;-49
2021/08/19 02:47:28;;;;;;;9.45;5.70;;;;;;;16.67;81.22;101404.56;4965386;28;20057;-46
2021/08/19 02:49:53;;;;;;;9.82;5.57;;;;;;;16.74;81.20;101391.41;4965282;28;20615;-47
2021/08/19 02:52:18;;;;;;;12.25;6.35;;;;;;;16.72;80.45;101394.91;4967569;28;20156;-46
2021/08/19 02:54:44;;;;;;;13.18;6.00;;;;;;;16.74;80.30;101388.75;4966593;28;20521;-49
2021/08/19 02:57:09;;;;;;;10.82;6.20;;;;;;;16.78;80.52;101394.88;4965164;28;20490;-47
2021/08/19 02:59:34;;;;;;;10.00;5.80;;;;;;;16.79;80.21;101389.63;4978322;28;20078;-49
2021/08/19 03:02:00;;;;;;;12.20;6.57;;;;;;;16.80;80.39;101391.38;4966095;28;20081;-49
2021/08/19 03:04:25;;;;;;;9.32;5.75;;;;;;;16.80;80.67;101391.38;4962338;28;20121;-48
2021/08/19 03:06:50;;;;;;;12.65;6.13;;;;;;;16.81;80.41;101390.50;4966440;28;20372;-47
2021/08/19 03:09:16;;;;;;;11.27;6.75;;;;;;;16.82;80.31;101386.97;4968727;28;20171;-48
2021/08/19 03:11:41;;;;;;;11.00;6.30;;;;;;;16.84;79.97;101390.47;4960808;28;20550;-48
2021/08/19 03:14:07;;;;;;;12.95;6.40;;;;;;;16.83;80.13;101393.97;4968651;28;20051;-49
2021/08/19 03:16:32;;;;;;;11.82;6.70;;;;;;;16.91;80.07;101388.69;4966412;28;20457;-48
2021/08/19 03:18:57;;;;;;;12.05;6.82;;;;;;;16.93;79.47;101389.56;4967282;28;20068;-47
2021/08/19 03:21:23;;;;;;;13.77;6.57;;;;;;;16.95;79.45;101390.44;4964250;28;20034;-49
2021/08/19 03:23:48;;;;;;;10.88;6.50;;;;;;;16.98;79.58;101388.66;4969826;28;20027;-49
2021/08/19 03:26:15;;;;;;;10.85;6.40;;;;;;;16.91;80.06;101391.31;4966529;28;20440;-47
2021/08/19 03:28:44;;;;;;;11.88;6.43;;;;;;;16.87;79.78;101386.94;4968633;28;20057;-51
2021/08/19 03:31:10;;;;;;;10.77;6.70;;;;;;;16.93;79.47;101387.81;4965471;28;20039;-47
2021/08/19 03:33:38;;;;;;;8.93;5.75;;;;;;;16.96;79.12;101379.00;4967923;28;20544;-52
2021/08/19 03:36:05;;;;;;;10.93;6.25;;;;;;;17.03;78.93;101386.00;4967854;28;20041;-49
2021/08/19 03:38:31;;;;;;;12.30;6.60;;;;;;;17.04;79.03;101377.22;4962727;28;20498;-47
2021/08/19 03:40:56;;;;;;;12.95;6.22;;;;;;;17.05;78.79;101378.97;4971371;28;20100;-51
2021/08/19 03:43:22;;;;;;;10.73;5.85;;;;;;;17.06;78.66;101386.00;4962691;28;20045;-46
2021/08/19 03:45:48;;;;;;;13.05;7.03;;;;;;;17.07;78.54;101381.59;4968736;28;20462;-51
2021/08/19 03:48:14;;;;;;;9.00;5.93;;;;;;;17.11;78.54;101380.69;4963011;28;20029;-48
2021/08/19 03:50:39;;;;;;;11.43;5.70;;;;;;;16.98;78.71;101378.13;4964744;28;20038;-53
2021/08/19 03:53:04;;;;;;;9.90;6.43;;;;;;;16.97;79.05;101386.03;4966080;28;20030;-48
2021/08/19 03:55:30;;;;;;;11.20;6.53;;;;;;;16.95;79.18;101379.91;4966831;28;20049;-50
2021/08/19 03:57:55;;;;;;;8.65;5.82;;;;;;;16.99;78.52;101381.63;4967512;28;20109;-49
2021/08/19 04:00:21;;;;;;;9.13;5.80;;;;;;;17.03;78.40;101378.09;4967168;28;20640;-48
2021/08/19 04:02:47;;;;;;;7.93;5.53;;;;;;;17.06;78.62;101374.56;4969107;28;20034;-47
2021/08/19 04:05:12;;;;;;;9.48;5.97;;;;;;;17.03;78.29;101378.09;4971077;28;20238;-50
2021/08/19 04:07:38;;;;;;;15.27;5.90;;;;;;;17.17;77.84;101383.28;4967729;28;20042;-48
2021/08/19 04:10:04;;;;;;;8.95;5.60;;;;;;;17.22;77.66;101379.75;4962294;28;20054;-50
2021/08/19 04:12:29;;;;;;;8.43;5.47;;;;;;;16.96;78.45;101382.50;4961865;28;20125;-49
2021/08/19 04:14:54;;;;;;;10.85;5.78;;;;;;;16.90;78.80;101377.28;4966688;28;20511;-46
2021/08/19 04:17:20;;;;;;;8.48;5.53;;;;;;;16.96;78.09;101374.59;4960887;28;20042;-47
2021/08/19 04:19:45;;;;;;;7.20;6.00;;;;;;;16.88;78.09;101379.06;4963639;28;20034;-51
2021/08/19 04:22:11;;;;;;;8.77;5.68;;;;;;;16.91;78.71;101371.13;4964804;28;20044;-50
2021/08/19 04:24:37;;;;;;;10.18;5.80;;;;;;;16.88;78.46;101375.53;4967902;28;20064;-51
2021/08/19 04:27:03;;;;;;;9.15;5.15;;;;;;;16.99;78.44;101368.47;4961503;28;20120;-49
2021/08/19 04:29:31;;;;;;;7.10;4.50;;;;;;;16.93;78.50;101371.13;4958686;28;20042;-48
2021/08/19 04:31:56;;;;;;;8.80;5.82;;;;;;;16.93;79.10;101371.13;4966117;28;20026;-50
2021/08/19 04:34:22;;;;;;;8.50;5.00;;;;;;;16.94;78.49;101367.63;4960590;28;20485;-48
2021/08/19 04:36:47;;;;;;;7.30;5.10;;;;;;;16.95;78.63;101375.53;4966962;28;20113;-47
2021/08/19 04:39:13;;;;;;;8.13;5.20;;;;;;;16.99;78.35;101364.06;4968247;28;20383;-47
2021/08/19 04:41:38;;;;;;;10.02;5.60;;;;;;;16.96;78.56;101373.72;4965428;28;20049;-47
2021/08/19 04:44:04;;;;;;;9.73;4.80;;;;;;;16.95;78.63;101374.63;4964829;28;20114;-50
2021/08/19 04:46:29;;;;;;;7.20;5.05;;;;;;;16.95;78.44;101374.63;4969130;28;20085;-47
2021/08/19 04:48:54;;;;;;;9.18;5.78;;;;;;;17.09;78.18;101375.41;4969711;28;20026;-50
2021/08/19 04:51:20;;;;;;;9.43;5.10;;;;;;;16.96;78.61;101374.59;4959934;28;20038;-48
2021/08/19 04:53:45;;;;;;;7.18;4.85;;;;;;;16.97;78.84;101375.47;4966790;28;20138;-49
2021/08/19 04:56:11;;;;;;;8.55;5.30;;;;;;;16.96;78.72;101381.63;4963070;28;20109;-51
2021/08/19 04:58:37;;;;;;;10.73;5.25;;;;;;;16.95;78.93;101380.78;4963582;28;20031;-50
2021/08/19 05:01:02;;;;;;;7.95;5.35;;;;;;;16.95;78.96;101379.91;4966521;28;20319;-51
2021/08/19 05:03:28;;;;;;;8.57;5.15;;;;;;;16.93;79.99;101377.28;4961082;28;20035;-49
2021/08/19 05:05:53;;;;;;;10.60;5.10;;;;;;;16.93;79.48;101374.63;4964727;28;20394;-50
2021/08/19 05:08:18;;;;;;;8.20;5.38;;;;;;;17.05;78.86;101381.59;4958414;28;20042;-53
2021/08/19 05:10:44;;;;;;;8.43;5.20;;;;;;;17.26;78.64;101381.47;4961605;28;20023;-48
2021/08/19 05:13:09;;;;;;;7.53;5.10;;;;;;;17.34;77.93;101381.44;4962677;28;20030;-49
2021/08/19 05:15:34;;;;;;;7.18;5.07;;;;;;;17.15;78.33;101385.03;4960177;28;20117;-48
2021/08/19 05:18:00;;;;;;;8.30;5.32;;;;;;;17.06;78.63;101386.00;4963670;28;20144;-49
2021/08/19 05:20:25;;;;;;;8.50;5.43;;;;;;;17.03;79.28;101383.34;4962202;28;20592;-48
2021/08/19 05:22:51;;;;;;;9.10;5.20;;;;;;;17.07;79.31;101393.03;4963950;28;20118;-47
2021/08/19 05:25:16;;;;;;;9.18;5.60;;;;;;;17.08;79.07;101383.34;4959540;28;20030;-49
2021/08/19 05:27:41;;;;;;;10.73;5.80;;;;;;;17.11;78.88;101396.50;4968840;28;20034;-47
2021/08/19 05:30:09;;;;;;;9.98;6.20;;;;;;;17.12;79.30;101399.13;4959639;28;20432;-48
2021/08/19 05:32:34;;;;;;;12.52;6.90;;;;;;;17.13;78.98;101398.25;4969655;28;20022;-51
2021/08/19 05:35:02;;;;;;;10.70;7.13;;;;;;;17.17;79.16;101396.47;4965652;28;20388;-48
2021/08/19 05:37:27;;;;;;;20.70;7.43;;;;;;;17.17;79.06;101397.34;4969851;28;20628;-50
2021/08/19 05:39:53;;;;;;;14.35;7.32;;;;;;;17.44;78.36;101394.53;4972314;28;20057;-47
2021/08/19 05:42:18;;;;;;;11.43;7.53;;;;;;;17.49;77.31;101399.78;4968137;28;20516;-46
2021/08/19 05:44:44;;;;;;;10.48;7.13;;;;;;;17.53;77.51;101390.09;4969831;28;20140;-49
2021/08/19 05:47:09;;;;;;;15.60;7.65;;;;;;;17.32;78.57;101397.25;4967703;28;20081;-50
2021/08/19 05:49:43;;;;;;;13.75;8.25;;;;;;;17.35;78.68;101393.72;4971800;28;20517;-47
2021/08/19 05:52:09;;;;;;;12.88;7.80;;;;;;;17.27;78.63;101400.78;4971089;28;20041;-48
2021/08/19 05:54:35;;;;;;;12.60;8.07;;;;;;;17.31;78.36;101400.78;4967214;28;20247;-46
2021/08/19 05:57:03;;;;;;;12.30;7.18;;;;;;;17.37;77.65;101403.38;4967251;28;20585;-47
2021/08/19 05:59:28;;;;;;;13.15;8.60;;;;;;;17.35;77.75;101407.78;4965020;28;20261;-48
2021/08/19 06:01:54;;;;;;;15.45;8.82;;;;;;;17.36;78.29;101406.03;4967390;28;20373;-48
2021/08/19 06:04:19;;;;;;;17.38;8.20;;;;;;;17.36;77.61;101401.63;4962419;28;21116;-49
2021/08/19 06:06:45;;;;;;;14.82;8.30;;;;;;;17.39;77.74;101400.72;4970674;28;20038;-50
2021/08/19 06:09:11;;;;;;;11.45;7.95;;;;;;;17.38;77.89;101399.84;4967299;28;20027;-50
2021/08/19 06:11:37;;;;;;;13.68;8.13;;;;;;;17.40;78.48;101399.84;4966333;28;20037;-50
2021/08/19 06:14:02;;;;;;;14.15;8.77;;;;;;;17.37;78.33;101400.75;4970101;28;20105;-49
2021/08/19 06:16:28;;;;;;;14.82;8.00;;;;;;;17.38;78.73;101405.13;4966885;28;20109;-48
2021/08/19 06:18:55;;;;;;;16.35;8.55;;;;;;;17.41;78.81;101397.19;4971176;28;20065;-50
2021/08/19 06:21:21;;;;;;;15.05;8.30;;;;;;;17.45;78.78;101400.69;4968485;28;20309;-48
2021/08/19 06:23:46;;;;;;;12.25;8.15;;;;;;;17.43;78.51;101406.00;4970780;28;20189;-49
2021/08/19 06:26:12;;;;;;;11.57;7.78;;;;;;;17.49;78.20;101407.72;4969252;28;20117;-49
2021/08/19 06:28:37;;;;;;;14.65;8.68;;;;;;;17.50;78.35;101408.59;4965679;28;20050;-48
2021/08/19 06:31:02;;;;;;;14.60;8.82;;;;;;;17.53;78.81;101409.44;4967516;28;20041;-48
2021/08/19 06:33:28;;;;;;;15.18;8.80;;;;;;;17.55;78.45;101405.03;4966929;28;20089;-49
2021/08/19 06:35:53;;;;;;;13.95;8.60;;;;;;;17.56;78.22;101409.41;4972857;28;20100;-49
2021/08/19 06:38:19;;;;;;;12.88;8.00;;;;;;;17.60;78.50;101399.72;4961367;28;20030;-50
2021/08/19 06:40:44;;;;;;;13.43;8.10;;;;;;;17.63;78.33;101412.91;4968668;28;20165;-50
2021/08/19 06:43:10;;;;;;;14.57;8.63;;;;;;;17.64;79.12;101407.63;4968246;28;20039;-47
2021/08/19 06:45:35;;;;;;;12.50;8.50;;;;;;;17.62;79.08;101401.50;4965424;28;20034;-48
2021/08/19 06:48:01;;;;;;;14.38;8.35;;;;;;;17.63;78.63;101412.91;4967663;28;20513;-56
2021/08/19 06:50:26;;;;;;;15.63;8.90;;;;;;;17.65;78.08;101413.78;4966338;28;20073;-47
2021/08/19 06:52:51;;;;;;;13.88;7.93;;;;;;;17.68;78.20;101419.91;4969003;28;20321;-46
2021/08/19 06:55:17;;;;;;;10.48;7.47;;;;;;;17.71;78.09;101417.25;4961833;28;20027;-49
2021/08/19 06:57:42;;;;;;;14.32;8.13;;;;;;;17.71;78.10;101411.97;4972688;28;20045;-47
2021/08/19 07:00:08;;;;;;;14.50;8.43;;;;;;;17.75;78.08;101418.06;4966773;28;20461;-47
2021/08/19 07:02:34;;;;;;;13.48;8.25;;;;;;;17.74;77.93;101419.88;4969837;28;20092;-49
2021/08/19 07:05:00;;;;;;;15.52;8.07;;;;;;;17.82;77.85;101418.03;4968397;28;20026;-49
2021/08/19 07:07:28;;;;;;;13.43;8.07;;;;;;;17.81;77.56;101421.56;4955293;28;20350;-52
2021/08/19 07:09:56;;;;;;;13.93;7.93;;;;;;;17.76;77.82;101419.84;4967383;28;20465;-50
2021/08/19 07:12:23;;;;;;;14.43;8.40;;;;;;;17.77;77.91;101418.94;4966226;28;20110;-51
2021/08/19 07:14:48;;;;;;;15.18;8.60;;;;;;;17.75;78.00;101416.31;4963858;28;20034;-52
2021/08/19 07:17:14;;;;;;;13.88;8.10;;;;;;;17.76;77.84;101423.34;4964073;28;20030;-49
2021/08/19 07:19:39;;;;;;;13.90;8.20;;;;;;;17.78;78.26;101418.94;4963030;28;20034;-49
2021/08/19 07:22:05;;;;;;;15.15;7.97;;;;;;;17.80;77.95;101424.22;4968973;28;20061;-47
2021/08/19 07:24:30;;;;;;;18.27;8.27;;;;;;;17.81;78.16;101418.91;4967375;28;20030;-47
2021/08/19 07:26:56;;;;;;;14.57;8.25;;;;;;;17.88;77.66;101422.38;4967469;28;20050;-49
2021/08/19 07:29:21;;;;;;;15.82;7.72;;;;;;;17.89;77.69;101418.84;4962055;28;20317;-48
2021/08/19 07:31:46;;;;;;;15.15;8.38;;;;;;;18.01;76.97;101425.78;4969136;28;20482;-47
2021/08/19 07:34:12;;;;;;;14.43;7.38;;;;;;;18.07;77.09;101423.97;4970708;28;20053;-51
2021/08/19 07:36:39;;;;;;;15.98;7.80;;;;;;;18.10;76.86;101426.63;4967542;28;20502;-47
2021/08/19 07:39:05;;;;;;;12.85;7.82;;;;;;;18.13;77.24;101436.25;4970501;28;20045;-47
2021/08/19 07:41:34;;;;;;;10.88;7.03;;;;;;;18.15;76.88;101431.84;4966469;28;20026;-51
2021/08/19 07:44:00;;;;;;;15.48;8.23;;;;;;;18.08;77.33;101438.06;4968424;28;20062;-51
2021/08/19 07:46:26;;;;;;;14.73;7.65;;;;;;;18.09;77.03;101432.78;4962341;28;20575;-51
2021/08/19 07:48:52;;;;;;;18.13;7.88;;;;;;;18.08;76.78;101431.00;4983534;28;20194;-49
2021/08/19 07:51:17;;;;;;;14.65;6.95;;;;;;;18.06;77.62;101437.19;4962389;28;20053;-48
2021/08/19 07:53:43;;;;;;;13.88;8.43;;;;;;;18.04;78.32;101446.91;4967891;28;20030;-46
2021/08/19 07:56:09;;;;;;;14.68;7.30;;;;;;;18.05;77.98;101446.84;4964917;28;20130;-46
2021/08/19 07:58:35;;;;;;;18.48;7.88;;;;;;;18.06;77.51;101443.34;4975743;28;20014;-51
2021/08/19 08:01:00;;;;;;;16.35;8.25;;;;;;;18.06;77.32;101448.63;4965075;28;20061;-46
2021/08/19 08:03:26;;;;;;;12.52;7.20;;;;;;;18.10;77.84;101446.84;4960012;28;20026;-49
2021/08/19 08:05:52;;;;;;;13.65;7.93;;;;;;;18.13;77.06;101446.81;4979061;28;20415;-47
2021/08/19 08:08:17;;;;;;;16.10;8.50;;;;;;;18.18;76.85;101450.28;4964049;28;20364;-51
2021/08/19 08:10:43;;;;;;;14.52;7.10;;;;;;;18.28;76.90;101451.09;4963891;28;20054;-47
2021/08/19 08:13:10;;;;;;;11.55;7.40;;;;;;;18.36;77.00;101455.38;4962937;28;20068;-49
2021/08/19 08:15:36;;;;;;;13.20;7.50;;;;;;;18.39;76.21;101458.00;4957153;28;20294;-51
2021/08/19 08:18:03;;;;;;;14.85;8.00;;;;;;;18.40;76.74;101457.13;4962012;28;20085;-47
2021/08/19 08:20:28;;;;;;;15.27;7.88;;;;;;;18.36;76.39;101457.19;4957640;28;20040;-48
2021/08/19 08:22:54;;;;;;;10.70;7.68;;;;;;;18.34;76.94;101467.75;4965996;28;20394;-49
2021/08/19 08:25:20;;;;;;;15.55;8.05;;;;;;;18.36;76.37;101458.03;4965454;28;20050;-53
2021/08/19 08:27:58;;;;;;;12.32;8.10;;;;;;;18.35;76.43;101463.34;4964776;28;20035;-50
2021/08/19 08:30:25;;;;;;;13.25;8.20;;;;;;;18.36;76.91;101460.66;4967533;28;20046;-47
2021/08/19 08:32:50;;;;;;;12.85;7.68;;;;;;;18.36;76.22;101459.81;4963167;28;20572;-48
2021/08/19 08:35:16;;;;;;;11.70;7.10;;;;;;;18.41;76.42;101464.16;4961824;28;20431;-49
2021/08/19 08:37:41;;;;;;;14.13;8.30;;;;;;;18.42;76.56;101459.75;4962936;28;20399;-49
2021/08/19 08:40:07;;;;;;;12.93;7.78;;;;;;;18.44;75.81;101468.53;4968064;28;20698;-50
2021/08/19 08:42:34;;;;;;;14.27;7.85;;;;;;;18.44;76.27;101464.13;4963943;28;20034;-47
2021/08/19 08:45:00;;;;;;;14.73;7.60;;;;;;;18.42;76.12;101465.88;4967132;28;20241;-48
2021/08/19 08:47:27;;;;;;;14.07;7.63;;;;;;;18.39;76.36;101473.84;4961177;28;20035;-46
2021/08/19 08:49:52;;;;;;;11.77;7.28;;;;;;;18.39;76.08;101473.84;4963586;28;20257;-46
2021/08/19 08:52:18;;;;;;;14.88;7.93;;;;;;;18.37;75.87;101480.91;4967608;28;20030;-47
2021/08/19 08:54:43;;;;;;;14.85;8.05;;;;;;;18.41;75.64;101474.72;4964950;28;20026;-49
2021/08/19 08:57:09;;;;;;;13.45;7.88;;;;;;;18.41;75.18;101474.72;4962298;28;20534;-48
2021/08/19 08:59:34;;;;;;;13.82;7.30;;;;;;;18.48;75.95;101476.38;4963482;28;20037;-48
2021/08/19 09:01:59;;;;;;;12.13;7.03;;;;;;;18.56;75.74;101484.28;4964232;28;20036;-48
2021/08/19 09:04:25;;;;;;;11.68;7.22;;;;;;;18.60;75.24;101478.94;4956271;28;20774;-51
2021/08/19 09:06:51;;;;;;;12.70;7.03;;;;;;;18.71;75.19;101473.56;4964941;28;20092;-51
2021/08/19 09:09:21;;;;;;;16.67;7.57;;;;;;;18.72;75.10;101480.63;4968630;28;20034;-47
2021/08/19 09:11:51;;;;;;;15.13;7.65;;;;;;;18.72;75.92;101483.25;4960498;28;20030;-51
2021/08/19 09:14:19;;;;;;;16.73;8.02;;;;;;;18.69;74.73;101480.63;4966588;28;20112;-48
2021/08/19 09:16:47;;;;;;;12.90;7.93;;;;;;;18.61;75.35;101483.34;4955534;28;20567;-48
2021/08/19 09:19:20;;;;;;;12.23;7.13;;;;;;;18.60;75.04;101484.22;4965672;28;20437;-48
2021/08/19 09:21:55;;;;;;;13.90;8.13;;;;;;;18.62;75.67;101490.38;4957395;28;20129;-48
2021/08/19 09:24:24;;;;;;;18.02;8.13;;;;;;;18.82;75.92;101487.53;4960227;28;20300;-50
2021/08/19 09:26:51;;;;;;;12.88;7.80;;;;;;;18.94;75.24;101489.16;4964072;28;20444;-49
2021/08/19 09:29:22;;;;;;;12.82;7.68;;;;;;;18.96;74.38;101488.28;4961201;28;20338;-47
2021/08/19 09:31:49;;;;;;;15.18;7.60;;;;;;;19.19;74.04;101479.19;4981417;28;20023;-52
2021/08/19 09:34:16;;;;;;;10.50;7.13;;;;;;;19.40;75.22;101492.13;4963211;28;20030;-49
2021/08/19 09:36:42;;;;;;;14.52;7.72;;;;;;;19.52;72.51;101491.97;4963124;28;20816;-51
2021/08/19 09:39:08;;;;;;;12.77;7.70;;;;;;;19.67;72.24;101489.13;4959329;28;20665;-48
2021/08/19 09:41:54;;;;;;;12.10;7.68;;;;;;;19.89;70.76;101487.03;4982478;28;20489;-50
2021/08/19 09:44:32;;;;;;;13.98;7.55;;;;;;;20.03;71.07;101486.84;4955712;28;20031;-50
2021/08/19 09:46:58;;;;;;;11.77;7.18;;;;;;;20.27;70.80;101481.13;4967940;28;20081;-50
2021/08/19 09:49:24;;;;;;;13.45;6.65;;;;;;;20.39;70.06;101485.38;4977883;28;20034;-49
2021/08/19 09:52:08;;;;;;;12.23;6.82;;;;;;;20.53;68.57;101489.56;4964289;28;20026;-49
2021/08/19 09:54:35;;;;;;;11.55;6.43;;;;;;;20.67;69.42;101486.66;4958210;28;20038;-46
2021/08/19 09:57:01;;;;;;;12.32;6.97;;;;;;;20.70;68.89;101491.00;4961943;28;20102;-48
2021/08/19 09:59:28;;;;;;;11.32;6.18;;;;;;;20.85;68.03;101485.44;4965299;28;20258;-46
2021/08/19 10:01:57;;;;;;;11.25;5.70;;;;;;;21.05;66.86;101486.78;4975495;28;20851;-48
2021/08/19 10:04:25;;;;;;;12.43;5.80;;;;;;;21.13;66.73;101483.09;4967981;28;20173;-50
2021/08/19 10:06:52;;;;;;;10.93;5.90;;;;;;;21.14;65.98;101477.78;4967419;28;20023;-46
2021/08/19 10:09:17;;;;;;;8.48;5.40;;;;;;;21.32;64.48;101485.38;4962478;28;20394;-50
2021/08/19 10:11:45;;;;;;;9.45;5.45;;;;;;;21.20;64.04;101476.81;4965685;28;20041;-48
2021/08/19 10:14:15;;;;;;;8.40;5.45;;;;;;;21.15;63.75;101473.34;4960599;28;20081;-49
2021/08/19 10:16:41;;;;;;;10.02;5.63;;;;;;;21.05;64.47;101486.78;4963322;28;20090;-47
2021/08/19 10:19:12;;;;;;;8.27;5.30;;;;;;;20.97;65.69;101480.78;4964312;28;20050;-47
2021/08/19 10:21:40;;;;;;;10.60;5.28;;;;;;;21.00;65.66;101480.69;4970727;28;20170;-47
2021/08/19 10:24:07;;;;;;;8.45;5.00;;;;;;;20.96;66.11;101480.78;4961841;28;20061;-47
2021/08/19 10:26:33;;;;;;;8.23;5.57;;;;;;;21.02;67.57;101481.56;4969859;28;20053;-50
2021/08/19 10:28:59;;;;;;;10.70;5.13;;;;;;;21.04;66.70;101477.06;4961127;28;20117;-48
2021/08/19 10:31:38;;;;;;;10.07;5.40;;;;;;;21.19;65.38;101483.00;4970099;28;20021;-47
2021/08/19 10:34:03;;;;;;;10.65;5.00;;;;;;;21.22;65.22;101480.31;4976500;28;20366;-47
2021/08/19 10:36:29;;;;;;;7.32;4.70;;;;;;;21.24;64.26;101487.31;4966673;28;20549;-49
2021/08/19 10:39:20;;;;;;;11.60;4.60;;;;;;;21.10;65.11;101476.09;4966925;28;20490;-48
2021/08/19 10:41:46;;;;;;;7.43;4.72;;;;;;;20.93;65.73;101487.00;4961581;28;20426;-50
2021/08/19 10:44:12;;;;;;;9.10;4.63;;;;;;;20.84;65.78;101484.56;4964668;28;20057;-50
2021/08/19 10:46:38;;;;;;;7.45;4.20;;;;;;;20.81;65.43;101481.06;4958615;28;20022;-49
2021/08/19 10:49:04;;;;;;;8.75;4.40;;;;;;;20.78;65.54;101489.09;4968065;28;20030;-50
2021/08/19 10:51:29;;;;;;;6.05;4.57;;;;;;;20.77;67.71;101487.34;4968035;28;20037;-48
2021/08/19 10:53:56;;;;;;;5.18;4.18;;;;;;;20.63;66.97;101484.94;4968143;28;20072;-53
2021/08/19 10:56:41;;;;;;;6.63;3.97;;;;;;;20.58;66.40;101495.63;4968602;28;20132;-47
2021/08/19 10:59:29;;;;;;;9.93;4.47;;;;;;;20.67;66.30;101489.31;4964259;28;20035;-52
2021/08/19 11:01:54;;;;;;;7.85;4.45;;;;;;;20.80;65.42;101488.16;4970570;28;20025;-49
2021/08/19 11:04:43;;;;;;;6.55;4.20;;;;;;;20.72;65.95;101484.78;4981423;28;20600;-47
2021/08/19 11:07:09;;;;;;;7.53;4.47;;;;;;;20.55;64.92;101492.19;4965203;28;20826;-48
2021/08/19 11:09:35;;;;;;;5.78;4.05;;;;;;;20.48;65.19;101490.53;4966532;28;20031;-48
2021/08/19 11:12:05;;;;;;;6.03;4.20;;;;;;;20.27;67.04;101494.38;4968059;28;20031;-47
2021/08/19 11:14:30;;;;;;;6.22;4.05;;;;;;;20.12;67.37;101486.72;4973352;28;20049;-47
2021/08/19 11:16:57;;;;;;;11.40;4.75;;;;;;;19.95;69.00;101494.00;4971846;28;20245;-49